createdAt,value
2023-05-03T00:00:26.814Z,12.05
2023-05-03T00:01:46.161Z,12.04
2023-05-03T00:02:49.227Z,12.07
2023-05-03T00:03:55.034Z,12.06
2023-05-03T00:05:01.017Z,12.02
2023-05-03T00:06:14.652Z,12.01
2023-05-03T00:07:18.586Z,12.00
2023-05-03T00:08:21.953Z,11.99
2023-05-03T00:09:24.864Z,12.02
2023-05-03T00:10:27.802Z,12.03
2023-05-03T00:11:30.762Z,12.00
2023-05-03T00:12:33.637Z,11.98
2023-05-03T00:13:36.733Z,11.92
2023-05-03T00:14:39.558Z,11.93
2023-05-03T00:15:42.402Z,11.91
2023-05-03T00:16:45.345Z,11.90
2023-05-03T00:17:48.396Z,11.92
2023-05-03T00:18:51.227Z,11.91
2023-05-03T00:19:56.253Z,11.91
2023-05-03T00:20:59.781Z,11.89
2023-05-03T00:22:02.678Z,11.89
2023-05-03T00:23:05.788Z,11.90
2023-05-03T00:24:08.612Z,11.93
2023-05-03T00:25:11.493Z,11.95
2023-05-03T00:26:14.485Z,11.96
2023-05-03T00:27:18.909Z,11.96
2023-05-03T00:28:22.188Z,11.95
2023-05-03T00:29:25.117Z,11.95
2023-05-03T00:30:28.071Z,11.96
2023-05-03T00:31:31.038Z,11.93
2023-05-03T00:32:34.022Z,11.92
2023-05-03T00:33:37.951Z,11.92
2023-05-03T00:34:41.285Z,11.85
2023-05-03T00:35:44.932Z,11.86
2023-05-03T00:36:47.871Z,11.86
2023-05-03T00:37:50.834Z,11.84
2023-05-03T00:38:54.005Z,11.85
2023-05-03T00:39:56.891Z,11.87
2023-05-03T00:40:59.719Z,11.86
2023-05-03T00:42:04.164Z,11.87
2023-05-03T00:43:07.747Z,11.86
2023-05-03T00:44:10.724Z,11.86
2023-05-03T00:45:13.576Z,11.86
2023-05-03T00:46:17.610Z,11.84
2023-05-03T00:47:22.506Z,11.82
2023-05-03T00:48:26.032Z,11.81
2023-05-03T00:49:28.918Z,11.84
2023-05-03T00:50:31.828Z,11.80
2023-05-03T00:51:35.474Z,11.82
2023-05-03T00:52:40.591Z,11.78
2023-05-03T00:53:44.823Z,11.75
2023-05-03T00:54:47.747Z,11.78
2023-05-03T00:55:55.754Z,11.74
2023-05-03T00:56:59.303Z,11.70
2023-05-03T00:58:02.171Z,11.72
2023-05-03T00:59:06.426Z,11.68
2023-05-03T01:00:10.792Z,11.64
2023-05-03T01:01:13.749Z,11.61
2023-05-03T01:02:17.010Z,11.57
2023-05-03T01:03:19.932Z,11.56
2023-05-03T01:04:23.627Z,11.48
2023-05-03T01:05:33.053Z,11.44
2023-05-03T01:06:38.662Z,11.40
2023-05-03T01:08:34.271Z,11.39
2023-05-03T01:09:49.381Z,11.29
2023-05-03T01:10:59.623Z,11.23
2023-05-03T01:12:12.055Z,11.19
2023-05-03T01:13:33.600Z,11.14
2023-05-03T01:14:41.519Z,11.09
2023-05-03T01:15:52.872Z,11.05
2023-05-03T01:17:11.852Z,11.02
2023-05-03T01:18:21.689Z,10.99
2023-05-03T01:19:51.538Z,10.94
2023-05-03T01:20:56.468Z,10.87
2023-05-03T01:22:26.532Z,10.84
2023-05-03T01:23:36.507Z,10.83
2023-05-03T01:24:41.877Z,10.81
2023-05-03T01:25:44.846Z,10.84
2023-05-03T01:26:47.711Z,10.78
2023-05-03T01:27:51.145Z,10.79
2023-05-03T01:28:55.340Z,10.74
2023-05-03T01:29:58.219Z,10.70
2023-05-03T01:31:01.307Z,10.67
2023-05-03T01:32:09.813Z,10.68
2023-05-03T01:33:33.792Z,10.63
2023-05-03T01:35:01.263Z,10.62
2023-05-03T01:36:21.006Z,10.60
2023-05-03T01:37:23.950Z,10.59
2023-05-03T01:38:28.858Z,10.61
2023-05-03T01:39:39.452Z,10.57
2023-05-03T01:40:50.268Z,10.52
2023-05-03T01:41:54.268Z,10.49
2023-05-03T01:42:57.866Z,10.48
2023-05-03T01:44:01.620Z,10.46
2023-05-03T01:45:05.636Z,10.49
2023-05-03T01:46:09.022Z,10.48
2023-05-03T01:47:15.276Z,10.49
2023-05-03T01:48:19.828Z,10.48
2023-05-03T01:49:22.762Z,10.48
2023-05-03T01:50:25.748Z,10.48
2023-05-03T01:51:28.568Z,10.48
2023-05-03T01:52:31.548Z,10.49
2023-05-03T01:53:34.398Z,10.49
2023-05-03T01:54:38.009Z,10.48
2023-05-03T01:55:40.844Z,10.49
2023-05-03T01:56:44.491Z,10.47
2023-05-03T01:57:47.333Z,10.46
2023-05-03T01:58:50.215Z,10.46
2023-05-03T01:59:53.414Z,10.45
2023-05-03T02:00:57.210Z,10.45
2023-05-03T02:02:00.090Z,10.46
2023-05-03T02:03:03.033Z,10.48
2023-05-03T02:04:05.943Z,10.49
2023-05-03T02:05:10.487Z,10.48
2023-05-03T02:06:13.400Z,10.50
2023-05-03T02:07:16.300Z,10.50
2023-05-03T02:08:19.158Z,10.51
2023-05-03T02:09:22.493Z,10.52
2023-05-03T02:10:25.830Z,10.51
2023-05-03T02:11:31.682Z,10.53
2023-05-03T02:12:34.741Z,10.52
2023-05-03T02:13:38.314Z,10.51
2023-05-03T02:14:41.272Z,10.52
2023-05-03T02:15:45.195Z,10.55
2023-05-03T02:16:48.676Z,10.56
2023-05-03T02:17:51.625Z,10.60
2023-05-03T02:18:55.869Z,10.62
2023-05-03T02:19:58.688Z,10.61
2023-05-03T02:21:01.954Z,10.60
2023-05-03T02:22:04.817Z,10.57
2023-05-03T02:23:07.757Z,10.58
2023-05-03T02:24:10.678Z,10.57
2023-05-03T02:25:13.507Z,10.56
2023-05-03T02:26:16.453Z,10.54
2023-05-03T02:27:19.312Z,10.54
2023-05-03T02:28:22.619Z,10.57
2023-05-03T02:29:25.641Z,10.57
2023-05-03T02:30:29.006Z,10.54
2023-05-03T02:31:32.444Z,10.53
2023-05-03T02:32:36.121Z,10.46
2023-05-03T02:33:39.306Z,10.48
2023-05-03T02:34:42.202Z,10.47
2023-05-03T02:35:45.429Z,10.51
2023-05-03T02:36:48.337Z,10.49
2023-05-03T02:37:51.493Z,10.45
2023-05-03T02:38:54.923Z,10.43
2023-05-03T02:39:58.162Z,10.43
2023-05-03T02:41:01.132Z,10.41
2023-05-03T02:42:04.093Z,10.42
2023-05-03T02:43:07.016Z,10.42
2023-05-03T02:44:09.881Z,10.42
2023-05-03T02:45:12.735Z,10.44
2023-05-03T02:46:15.744Z,10.41
2023-05-03T02:47:18.854Z,10.43
2023-05-03T02:48:21.676Z,10.42
2023-05-03T02:49:24.703Z,10.41
2023-05-03T02:50:27.751Z,10.40
2023-05-03T02:51:31.087Z,10.40
2023-05-03T02:52:33.953Z,10.41
2023-05-03T02:53:36.905Z,10.46
2023-05-03T02:54:40.086Z,10.46
2023-05-03T02:55:44.799Z,10.47
2023-05-03T02:56:47.997Z,10.48
2023-05-03T02:57:50.887Z,10.49
2023-05-03T02:58:55.310Z,10.48
2023-05-03T02:59:58.783Z,10.48
2023-05-03T03:01:02.255Z,10.46
2023-05-03T03:02:05.371Z,10.44
2023-05-03T03:03:09.019Z,10.46
2023-05-03T03:04:11.930Z,10.48
2023-05-03T03:05:14.821Z,10.49
2023-05-03T03:06:18.569Z,10.50
2023-05-03T03:07:21.523Z,10.46
2023-05-03T03:08:25.072Z,10.47
2023-05-03T03:09:28.146Z,10.47
2023-05-03T03:10:31.571Z,10.50
2023-05-03T03:11:35.277Z,10.49
2023-05-03T03:12:38.736Z,10.43
2023-05-03T03:13:41.954Z,10.40
2023-05-03T03:14:45.834Z,10.39
2023-05-03T03:15:48.724Z,10.43
2023-05-03T03:16:52.275Z,10.41
2023-05-03T03:17:58.011Z,10.40
2023-05-03T03:19:01.096Z,10.40
2023-05-03T03:20:06.361Z,10.35
2023-05-03T03:21:09.365Z,10.32
2023-05-03T03:22:12.452Z,10.30
2023-05-03T03:23:15.448Z,10.30
2023-05-03T03:24:18.533Z,10.32
2023-05-03T03:25:21.608Z,10.27
2023-05-03T03:26:25.320Z,10.26
2023-05-03T03:27:28.654Z,10.30
2023-05-03T03:28:31.497Z,10.28
2023-05-03T03:29:35.588Z,10.28
2023-05-03T03:30:39.100Z,10.28
2023-05-03T03:31:48.515Z,10.33
2023-05-03T03:32:53.030Z,10.32
2023-05-03T03:33:59.742Z,10.30
2023-05-03T03:35:03.361Z,10.28
2023-05-03T03:36:08.009Z,10.28
2023-05-03T03:37:11.725Z,10.27
2023-05-03T03:38:16.325Z,10.26
2023-05-03T03:39:24.247Z,10.22
2023-05-03T03:40:27.261Z,10.22
2023-05-03T03:41:32.060Z,10.22
2023-05-03T03:42:35.133Z,10.22
2023-05-03T03:43:38.013Z,10.20
2023-05-03T03:44:42.267Z,10.20
2023-05-03T03:45:45.487Z,10.18
2023-05-03T03:46:48.897Z,10.17
2023-05-03T03:47:53.710Z,10.16
2023-05-03T03:48:57.112Z,10.15
2023-05-03T03:50:02.222Z,10.19
2023-05-03T03:51:06.878Z,10.16
2023-05-03T03:52:13.309Z,10.15
2023-05-03T03:53:16.225Z,10.18
2023-05-03T03:54:19.895Z,10.20
2023-05-03T03:55:23.229Z,10.24
2023-05-03T03:56:27.279Z,10.22
2023-05-03T03:57:31.712Z,10.28
2023-05-03T03:58:34.830Z,10.26
2023-05-03T03:59:37.896Z,10.32
2023-05-03T04:00:41.031Z,10.31
2023-05-03T04:01:47.449Z,10.34
2023-05-03T04:02:50.511Z,10.31
2023-05-03T04:03:54.423Z,10.35
2023-05-03T04:04:57.366Z,10.32
2023-05-03T04:06:00.379Z,10.32
2023-05-03T04:07:04.487Z,10.33
2023-05-03T04:08:07.448Z,10.36
2023-05-03T04:09:11.159Z,10.38
2023-05-03T04:10:14.629Z,10.38
2023-05-03T04:11:17.695Z,10.41
2023-05-03T04:12:25.577Z,10.44
2023-05-03T04:13:28.732Z,10.43
2023-05-03T04:14:31.728Z,10.48
2023-05-03T04:15:34.622Z,10.52
2023-05-03T04:16:38.608Z,10.56
2023-05-03T04:17:42.265Z,10.57
2023-05-03T04:18:46.525Z,10.57
2023-05-03T04:19:49.756Z,10.54
2023-05-03T04:20:52.700Z,10.54
2023-05-03T04:21:56.482Z,10.57
2023-05-03T04:23:00.765Z,10.56
2023-05-03T04:24:07.322Z,10.59
2023-05-03T04:25:17.294Z,10.60
2023-05-03T04:26:31.246Z,10.57
2023-05-03T04:27:38.663Z,10.57
2023-05-03T04:28:42.500Z,10.59
2023-05-03T04:29:46.053Z,10.59
2023-05-03T04:30:49.499Z,10.57
2023-05-03T04:31:56.979Z,10.55
2023-05-03T04:33:00.844Z,10.52
2023-05-03T04:34:04.819Z,10.54
2023-05-03T04:35:09.719Z,10.54
2023-05-03T04:36:16.228Z,10.56
2023-05-03T04:37:23.003Z,10.60
2023-05-03T04:38:26.195Z,10.59
2023-05-03T04:39:29.064Z,10.56
2023-05-03T04:40:32.128Z,10.56
2023-05-03T04:41:42.217Z,10.57
2023-05-03T04:42:45.591Z,10.60
2023-05-03T04:43:48.442Z,10.62
2023-05-03T04:44:51.525Z,10.67
2023-05-03T04:45:54.601Z,10.66
2023-05-03T04:46:59.916Z,10.71
2023-05-03T04:48:05.527Z,10.68
2023-05-03T04:49:08.793Z,10.71
2023-05-03T04:50:11.655Z,10.72
2023-05-03T04:51:16.871Z,10.76
2023-05-03T04:52:21.049Z,10.73
2023-05-03T04:53:24.164Z,10.73
2023-05-03T04:54:34.912Z,10.71
2023-05-03T04:55:37.771Z,10.76
2023-05-03T04:56:40.799Z,10.80
2023-05-03T04:57:47.939Z,10.87
2023-05-03T04:58:50.837Z,10.87
2023-05-03T04:59:56.507Z,10.91
2023-05-03T05:00:59.970Z,10.95
2023-05-03T05:02:05.567Z,10.96
2023-05-03T05:03:09.292Z,10.97
2023-05-03T05:04:12.274Z,11.03
2023-05-03T05:05:20.402Z,11.03
2023-05-03T05:06:23.987Z,11.08
2023-05-03T05:07:27.037Z,11.13
2023-05-03T05:08:30.469Z,11.14
2023-05-03T05:09:33.559Z,11.17
2023-05-03T05:10:40.896Z,11.21
2023-05-03T05:11:44.892Z,11.22
2023-05-03T05:12:47.880Z,11.25
2023-05-03T05:13:50.760Z,11.29
2023-05-03T05:14:54.118Z,11.32
2023-05-03T05:15:57.254Z,11.34
2023-05-03T05:17:00.349Z,11.40
2023-05-03T05:18:03.335Z,11.41
2023-05-03T05:19:06.542Z,11.44
2023-05-03T05:20:12.564Z,11.44
2023-05-03T05:21:17.416Z,11.45
2023-05-03T05:22:21.026Z,11.48
2023-05-03T05:23:29.222Z,11.42
2023-05-03T05:24:32.280Z,11.41
2023-05-03T05:25:35.151Z,11.38
2023-05-03T05:26:38.585Z,11.33
2023-05-03T05:27:42.089Z,11.31
2023-05-03T05:28:44.960Z,11.31
2023-05-03T05:29:47.827Z,11.35
2023-05-03T05:30:50.740Z,11.32
2023-05-03T05:31:54.159Z,11.32
2023-05-03T05:32:57.173Z,11.33
2023-05-03T05:34:00.211Z,11.32
2023-05-03T05:35:03.769Z,11.31
2023-05-03T05:36:07.521Z,11.32
2023-05-03T05:37:10.656Z,11.33
2023-05-03T05:38:14.147Z,11.39
2023-05-03T05:39:17.720Z,11.38
2023-05-03T05:40:21.513Z,11.38
2023-05-03T05:41:28.604Z,11.39
2023-05-03T05:42:31.517Z,11.42
2023-05-03T05:43:34.620Z,11.46
2023-05-03T05:44:37.675Z,11.52
2023-05-03T05:45:40.885Z,11.54
2023-05-03T05:46:43.783Z,11.57
2023-05-03T05:47:47.294Z,11.63
2023-05-03T05:48:51.490Z,11.60
2023-05-03T05:49:54.950Z,11.65
2023-05-03T05:50:58.064Z,11.64
2023-05-03T05:52:01.044Z,11.66
2023-05-03T05:53:04.525Z,11.72
2023-05-03T05:54:11.025Z,11.80
2023-05-03T05:55:15.934Z,11.86
2023-05-03T05:56:20.397Z,11.92
2023-05-03T05:57:23.365Z,11.91
2023-05-03T05:58:26.418Z,11.89
2023-05-03T05:59:31.517Z,11.91
2023-05-03T06:00:35.291Z,11.90
2023-05-03T06:01:41.846Z,11.97
2023-05-03T06:02:45.940Z,12.02
2023-05-03T06:03:52.687Z,12.15
2023-05-03T06:04:56.347Z,12.25
2023-05-03T06:05:59.427Z,12.43
2023-05-03T06:07:02.346Z,12.56
2023-05-03T06:08:05.329Z,12.62
2023-05-03T06:09:22.983Z,12.67
2023-05-03T06:10:29.211Z,12.74
2023-05-03T06:11:33.949Z,12.86
2023-05-03T06:12:37.031Z,12.96
2023-05-03T06:13:42.153Z,13.01
2023-05-03T06:15:01.028Z,13.04
2023-05-03T06:16:05.871Z,13.01
2023-05-03T06:17:08.873Z,13.06
2023-05-03T06:18:11.830Z,13.21
2023-05-03T06:19:14.904Z,13.27
2023-05-03T06:20:18.508Z,13.34
2023-05-03T06:21:22.736Z,13.42
2023-05-03T06:22:25.760Z,13.48
2023-05-03T06:23:29.273Z,13.56
2023-05-03T06:24:33.715Z,13.64
2023-05-03T06:25:36.626Z,13.72
2023-05-03T06:26:40.232Z,13.92
2023-05-03T06:27:43.666Z,14.05
2023-05-03T06:28:47.357Z,14.17
2023-05-03T06:29:50.720Z,14.25
2023-05-03T06:30:53.647Z,14.40
2023-05-03T06:31:56.674Z,14.44
2023-05-03T06:32:59.902Z,14.44
2023-05-03T06:34:03.848Z,14.57
2023-05-03T06:35:07.827Z,14.75
2023-05-03T06:36:10.962Z,14.89
2023-05-03T06:37:14.303Z,15.11
2023-05-03T06:38:18.059Z,15.20
2023-05-03T06:39:21.102Z,15.28
2023-05-03T06:40:26.014Z,15.36
2023-05-03T06:41:28.886Z,15.46
2023-05-03T06:42:31.839Z,15.51
2023-05-03T06:43:55.452Z,15.57
2023-05-03T06:44:59.739Z,15.62
2023-05-03T06:46:03.334Z,15.74
2023-05-03T06:47:06.595Z,15.83
2023-05-03T06:48:10.071Z,15.93
2023-05-03T06:49:14.016Z,16.06
2023-05-03T06:50:16.905Z,16.24
2023-05-03T06:51:19.996Z,16.46
2023-05-03T06:52:22.897Z,16.67
2023-05-03T06:53:26.113Z,16.87
2023-05-03T06:54:29.137Z,16.98
2023-05-03T06:55:33.158Z,17.07
2023-05-03T06:56:36.684Z,17.20
2023-05-03T06:57:41.586Z,17.29
2023-05-03T06:58:44.513Z,17.38
2023-05-03T06:59:47.359Z,17.51
2023-05-03T07:00:54.060Z,17.57
2023-05-03T07:01:57.029Z,17.61
2023-05-03T07:03:00.401Z,17.79
2023-05-03T07:04:03.428Z,18.02
2023-05-03T07:05:07.184Z,18.15
2023-05-03T07:06:10.342Z,18.15
2023-05-03T07:07:13.324Z,18.15
2023-05-03T07:08:16.285Z,18.23
2023-05-03T07:09:21.983Z,18.30
2023-05-03T07:10:31.384Z,18.43
2023-05-03T07:11:37.121Z,18.54
2023-05-03T07:12:40.000Z,18.61
2023-05-03T07:13:42.836Z,18.74
2023-05-03T07:14:46.137Z,18.86
2023-05-03T07:15:49.241Z,19.02
2023-05-03T07:16:52.167Z,19.27
2023-05-03T07:17:55.015Z,19.44
2023-05-03T07:18:57.853Z,19.53
2023-05-03T07:20:00.828Z,19.61
2023-05-03T07:21:07.255Z,19.65
2023-05-03T07:22:12.077Z,19.66
2023-05-03T07:23:15.580Z,19.52
2023-05-03T07:24:19.119Z,19.26
2023-05-03T07:25:22.139Z,19.08
2023-05-03T07:26:26.615Z,18.94
2023-05-03T07:27:29.519Z,18.89
2023-05-03T07:28:32.489Z,18.73
2023-05-03T07:29:35.852Z,18.47
2023-05-03T07:30:38.736Z,18.17
2023-05-03T07:31:41.598Z,17.93
2023-05-03T07:32:44.617Z,17.77
2023-05-03T07:33:47.722Z,17.57
2023-05-03T07:34:51.057Z,17.46
2023-05-03T07:35:53.899Z,17.47
2023-05-03T07:36:56.885Z,17.49
2023-05-03T07:37:59.816Z,17.58
2023-05-03T07:39:02.655Z,17.68
2023-05-03T07:40:07.102Z,17.76
2023-05-03T07:41:10.590Z,17.79
2023-05-03T07:42:13.661Z,17.88
2023-05-03T07:43:18.626Z,18.08
2023-05-03T07:44:22.700Z,18.26
2023-05-03T07:45:25.824Z,18.38
2023-05-03T07:46:31.281Z,18.30
2023-05-03T07:47:37.849Z,18.25
2023-05-03T07:48:40.807Z,18.26
2023-05-03T07:49:43.899Z,18.24
2023-05-03T07:50:47.141Z,18.14
2023-05-03T07:51:50.117Z,18.03
2023-05-03T07:52:53.572Z,17.87
2023-05-03T07:53:56.640Z,17.71
2023-05-03T07:55:00.324Z,17.56
2023-05-03T07:56:03.434Z,17.46
2023-05-03T07:57:07.347Z,17.43
2023-05-03T07:58:10.255Z,17.52
2023-05-03T07:59:13.198Z,17.66
2023-05-03T08:00:17.917Z,17.76
2023-05-03T08:01:24.213Z,17.76
2023-05-03T08:02:27.415Z,17.74
2023-05-03T08:03:30.993Z,17.70
2023-05-03T08:04:34.103Z,17.64
2023-05-03T08:05:37.797Z,17.73
2023-05-03T08:06:40.798Z,17.78
2023-05-03T08:07:44.486Z,17.69
2023-05-03T08:08:47.357Z,17.63
2023-05-03T08:09:53.487Z,17.58
2023-05-03T08:10:56.327Z,17.64
2023-05-03T08:11:59.604Z,17.71
2023-05-03T08:13:02.526Z,17.69
2023-05-03T08:14:05.625Z,17.70
2023-05-03T08:15:08.957Z,17.70
2023-05-03T08:16:13.594Z,17.61
2023-05-03T08:17:16.535Z,17.39
2023-05-03T08:18:20.974Z,17.19
2023-05-03T08:19:25.581Z,17.11
2023-05-03T08:20:28.530Z,17.09
2023-05-03T08:21:31.381Z,17.17
2023-05-03T08:22:36.945Z,17.24
2023-05-03T08:23:39.781Z,17.29
2023-05-03T08:24:43.427Z,17.33
2023-05-03T08:25:46.257Z,17.34
2023-05-03T08:26:50.276Z,17.37
2023-05-03T08:27:53.170Z,17.41
2023-05-03T08:28:56.286Z,17.40
2023-05-03T08:30:01.324Z,17.36
2023-05-03T08:31:05.151Z,17.23
2023-05-03T08:32:08.454Z,17.16
2023-05-03T08:33:11.512Z,17.22
2023-05-03T08:34:14.324Z,17.29
2023-05-03T08:35:17.342Z,17.40
2023-05-03T08:36:20.434Z,17.50
2023-05-03T08:37:24.028Z,17.50
2023-05-03T08:38:27.637Z,17.60
2023-05-03T08:39:31.716Z,17.72
2023-05-03T08:40:37.517Z,17.71
2023-05-03T08:41:40.467Z,17.68
2023-05-03T08:42:44.554Z,17.63
2023-05-03T08:43:53.540Z,17.47
2023-05-03T08:44:56.522Z,17.35
2023-05-03T08:45:59.693Z,17.25
2023-05-03T08:47:04.932Z,17.10
2023-05-03T08:48:07.871Z,17.00
2023-05-03T08:49:13.737Z,16.87
2023-05-03T08:50:16.740Z,16.71
2023-05-03T08:51:24.265Z,16.60
2023-05-03T08:52:27.196Z,16.59
2023-05-03T08:53:30.099Z,16.67
2023-05-03T08:54:33.003Z,16.81
2023-05-03T08:55:36.063Z,16.97
2023-05-03T08:56:44.134Z,17.08
2023-05-03T08:57:47.299Z,17.16
2023-05-03T08:58:50.133Z,17.20
2023-05-03T08:59:57.230Z,17.29
2023-05-03T09:01:08.028Z,17.45
2023-05-03T09:02:12.346Z,17.59
2023-05-03T09:03:15.698Z,17.60
2023-05-03T09:04:18.740Z,17.54
2023-05-03T09:05:21.652Z,17.54
2023-05-03T09:06:28.574Z,17.57
2023-05-03T09:07:31.553Z,17.63
2023-05-03T09:08:43.876Z,17.72
2023-05-03T09:09:47.463Z,17.73
2023-05-03T09:10:50.436Z,17.74
2023-05-03T09:11:53.304Z,17.82
2023-05-03T09:13:03.679Z,17.91
2023-05-03T09:14:13.486Z,18.00
2023-05-03T09:15:22.439Z,18.06
2023-05-03T09:16:30.281Z,18.21
2023-05-03T09:17:33.647Z,18.26
2023-05-03T09:18:37.664Z,18.41
2023-05-03T09:19:52.697Z,18.59
2023-05-03T09:20:59.264Z,18.83
2023-05-03T09:22:07.740Z,19.00
2023-05-03T09:23:10.697Z,19.12
2023-05-03T09:24:19.456Z,19.10
2023-05-03T09:25:22.385Z,18.86
2023-05-03T09:26:28.989Z,18.64
2023-05-03T09:27:32.239Z,18.35
2023-05-03T09:28:43.016Z,18.13
2023-05-03T09:29:46.202Z,17.96
2023-05-03T09:30:50.561Z,17.97
2023-05-03T09:32:01.844Z,17.96
2023-05-03T09:33:05.103Z,18.00
2023-05-03T09:34:23.265Z,18.18
2023-05-03T09:35:26.143Z,18.38
2023-05-03T09:36:44.627Z,18.58
2023-05-03T09:37:47.470Z,18.75
2023-05-03T09:38:52.507Z,18.86
2023-05-03T09:40:05.779Z,18.89
2023-05-03T09:41:08.697Z,19.02
2023-05-03T09:42:13.161Z,19.18
2023-05-03T09:44:19.591Z,19.44
2023-05-03T09:45:25.459Z,19.60
2023-05-03T09:46:30.319Z,19.52
2023-05-03T09:47:51.955Z,19.31
2023-05-03T09:49:21.025Z,19.09
2023-05-03T09:50:24.656Z,18.94
2023-05-03T09:51:28.267Z,18.83
2023-05-03T09:52:31.381Z,18.75
2023-05-03T09:53:36.085Z,18.67
2023-05-03T09:54:39.508Z,18.52
2023-05-03T09:55:42.498Z,18.34
2023-05-03T09:56:47.307Z,18.27
2023-05-03T09:57:55.158Z,18.31
2023-05-03T09:58:59.013Z,18.36
2023-05-03T10:00:01.983Z,18.48
2023-05-03T10:01:16.382Z,18.56
2023-05-03T10:02:19.877Z,18.62
2023-05-03T10:03:38.179Z,18.72
2023-05-03T10:04:51.330Z,18.85
2023-05-03T10:05:54.864Z,18.96
2023-05-03T10:07:06.779Z,19.12
2023-05-03T10:08:12.698Z,19.34
2023-05-03T10:09:21.610Z,19.48
2023-05-03T10:10:25.000Z,19.59
2023-05-03T10:11:28.922Z,19.73
2023-05-03T10:12:34.803Z,19.83
2023-05-03T10:13:38.151Z,19.83
2023-05-03T10:14:42.805Z,19.88
2023-05-03T10:15:46.649Z,19.90
2023-05-03T10:16:51.986Z,19.91
2023-05-03T10:17:58.103Z,19.90
2023-05-03T10:19:14.648Z,19.83
2023-05-03T10:20:43.640Z,19.73
2023-05-03T10:21:57.237Z,19.60
2023-05-03T10:23:10.201Z,19.53
2023-05-03T10:24:17.460Z,19.49
2023-05-03T10:25:20.370Z,19.48
2023-05-03T10:26:25.008Z,19.59
2023-05-03T10:27:46.269Z,19.69
2023-05-03T10:28:49.465Z,19.84
2023-05-03T10:29:53.804Z,20.00
2023-05-03T10:30:56.845Z,20.11
2023-05-03T10:32:00.047Z,20.19
2023-05-03T10:33:28.860Z,20.14
2023-05-03T10:34:35.712Z,20.17
2023-05-03T10:35:42.969Z,20.39
2023-05-03T10:36:52.667Z,20.46
2023-05-03T10:37:59.000Z,20.45
2023-05-03T10:39:03.619Z,20.51
2023-05-03T10:40:14.802Z,20.64
2023-05-03T10:41:25.034Z,20.69
2023-05-03T10:42:27.889Z,20.69
2023-05-03T10:43:33.677Z,20.65
2023-05-03T10:44:55.311Z,20.46
2023-05-03T10:46:03.219Z,20.19
2023-05-03T10:47:22.737Z,19.96
2023-05-03T10:48:26.678Z,19.76
2023-05-03T10:49:29.581Z,19.71
2023-05-03T10:50:32.502Z,19.81
2023-05-03T10:51:37.686Z,19.90
2023-05-03T10:52:40.927Z,19.98
2023-05-03T10:53:45.053Z,19.92
2023-05-03T10:54:47.996Z,19.86
2023-05-03T10:56:11.063Z,19.88
2023-05-03T10:57:14.032Z,20.08
2023-05-03T10:58:17.302Z,20.26
2023-05-03T10:59:21.145Z,20.30
2023-05-03T11:00:34.069Z,20.39
2023-05-03T11:01:37.477Z,20.54
2023-05-03T11:03:08.586Z,20.64
2023-05-03T11:04:19.832Z,20.83
2023-05-03T11:05:24.870Z,20.94
2023-05-03T11:06:31.584Z,21.02
2023-05-03T11:07:34.911Z,21.16
2023-05-03T11:08:38.067Z,21.32
2023-05-03T11:09:41.260Z,21.46
2023-05-03T11:10:45.523Z,21.48
2023-05-03T11:11:48.388Z,21.35
2023-05-03T11:12:51.262Z,21.17
2023-05-03T11:13:54.592Z,20.90
2023-05-03T11:14:57.518Z,20.62
2023-05-03T11:16:00.892Z,20.36
2023-05-03T11:17:04.040Z,20.30
2023-05-03T11:18:08.705Z,20.34
2023-05-03T11:19:12.068Z,20.43
2023-05-03T11:20:15.009Z,20.50
2023-05-03T11:21:19.033Z,20.56
2023-05-03T11:22:22.178Z,20.68
2023-05-03T11:23:28.285Z,20.77
2023-05-03T11:24:31.164Z,20.83
2023-05-03T11:25:34.733Z,21.02
2023-05-03T11:26:40.809Z,21.31
2023-05-03T11:27:45.131Z,21.52
2023-05-03T11:28:49.529Z,21.59
2023-05-03T11:29:53.206Z,21.53
2023-05-03T11:30:57.488Z,21.60
2023-05-03T11:32:00.838Z,21.65
2023-05-03T11:33:03.885Z,21.53
2023-05-03T11:34:06.938Z,21.34
2023-05-03T11:35:11.002Z,21.32
2023-05-03T11:36:14.986Z,21.42
2023-05-03T11:37:18.080Z,21.54
2023-05-03T11:38:21.258Z,21.65
2023-05-03T11:39:24.051Z,21.78
2023-05-03T11:40:26.943Z,21.92
2023-05-03T11:41:29.831Z,22.12
2023-05-03T11:42:32.706Z,22.27
2023-05-03T11:43:41.266Z,22.32
2023-05-03T11:44:44.340Z,22.36
2023-05-03T11:45:50.785Z,22.48
2023-05-03T11:46:55.148Z,22.51
2023-05-03T11:47:59.319Z,22.48
2023-05-03T11:49:03.184Z,22.47
2023-05-03T11:50:06.586Z,22.49
2023-05-03T11:51:12.594Z,22.42
2023-05-03T11:52:21.133Z,22.41
2023-05-03T11:53:25.803Z,22.58
2023-05-03T11:54:29.868Z,22.71
2023-05-03T11:55:32.704Z,22.83
2023-05-03T11:56:35.657Z,22.93
2023-05-03T11:57:38.980Z,23.04
2023-05-03T11:58:57.114Z,23.08
2023-05-03T12:00:18.950Z,23.20
2023-05-03T12:01:23.281Z,23.46
2023-05-03T12:02:27.451Z,23.67
2023-05-03T12:03:36.137Z,23.86
2023-05-03T12:04:43.173Z,24.03
2023-05-03T12:05:48.171Z,24.21
2023-05-03T12:06:54.855Z,24.36
2023-05-03T12:07:59.739Z,24.57
2023-05-03T12:09:05.626Z,24.65
2023-05-03T12:10:23.890Z,24.52
2023-05-03T12:11:32.188Z,24.19
2023-05-03T12:12:38.354Z,23.86
2023-05-03T12:13:44.760Z,23.68
2023-05-03T12:15:04.506Z,23.63
2023-05-03T12:16:13.659Z,23.59
2023-05-03T12:17:37.363Z,23.52
2023-05-03T12:19:03.411Z,23.46
2023-05-03T12:21:46.967Z,22.77
2023-05-03T12:23:16.695Z,22.57
2023-05-03T12:24:20.753Z,22.61
2023-05-03T12:25:26.407Z,22.63
2023-05-03T12:26:29.946Z,22.46
2023-05-03T12:27:33.118Z,22.43
2023-05-03T12:28:36.316Z,22.60
2023-05-03T12:29:41.638Z,22.76
2023-05-03T12:30:46.426Z,22.96
2023-05-03T12:31:50.154Z,23.14
2023-05-03T12:32:53.571Z,23.18
2023-05-03T12:34:20.032Z,22.94
2023-05-03T12:35:26.942Z,22.49
2023-05-03T12:36:37.121Z,22.05
2023-05-03T12:37:43.476Z,21.81
2023-05-03T12:38:48.853Z,21.79
2023-05-03T12:40:09.835Z,22.01
2023-05-03T12:41:33.147Z,22.44
2023-05-03T12:42:43.791Z,23.00
2023-05-03T12:43:47.221Z,23.34
2023-05-03T12:44:53.358Z,23.60
2023-05-03T12:47:09.695Z,24.27
2023-05-03T12:48:13.415Z,24.49
2023-05-03T12:49:16.608Z,24.64
2023-05-03T12:50:24.427Z,24.87
2023-05-03T12:51:32.816Z,25.11
2023-05-03T12:52:38.629Z,25.20
2023-05-03T12:53:44.742Z,25.33
2023-05-03T12:54:52.400Z,25.33
2023-05-03T12:55:58.646Z,25.15
2023-05-03T12:57:08.335Z,24.77
2023-05-03T12:59:40.367Z,24.13
2023-05-03T13:00:46.613Z,24.07
2023-05-03T13:03:10.008Z,24.27
2023-05-03T13:03:32.455Z,24.48
2023-05-03T13:05:43.226Z,24.59
2023-05-03T13:06:47.250Z,24.58
2023-05-03T13:07:56.073Z,24.58
2023-05-03T13:09:03.013Z,24.71
2023-05-03T13:11:13.106Z,24.72
2023-05-03T13:12:18.235Z,24.65
2023-05-03T13:13:21.202Z,24.68
2023-05-03T13:14:24.757Z,24.58
2023-05-03T13:15:27.810Z,24.42
2023-05-03T13:16:30.926Z,24.27
2023-05-03T13:17:34.120Z,24.17
2023-05-03T13:18:37.276Z,24.13
2023-05-03T13:19:42.259Z,24.02
2023-05-03T13:20:45.647Z,23.95
2023-05-03T13:21:49.632Z,23.79
2023-05-03T13:22:52.458Z,23.57
2023-05-03T13:23:55.420Z,23.41
2023-05-03T13:24:58.259Z,23.24
2023-05-03T13:26:01.349Z,23.27
2023-05-03T13:27:06.168Z,23.29
2023-05-03T13:28:09.253Z,23.32
2023-05-03T13:29:12.099Z,23.41
2023-05-03T13:30:15.024Z,23.50
2023-05-03T13:31:18.910Z,23.54
2023-05-03T13:32:21.859Z,23.57
2023-05-03T13:33:24.929Z,23.64
2023-05-03T13:34:29.624Z,23.71
2023-05-03T13:35:32.486Z,23.76
2023-05-03T13:36:35.806Z,23.79
2023-05-03T13:37:38.908Z,23.78
2023-05-03T13:38:44.771Z,23.71
2023-05-03T13:39:47.684Z,23.57
2023-05-03T13:40:50.486Z,23.43
2023-05-03T13:41:53.392Z,23.28
2023-05-03T13:42:56.199Z,23.08
2023-05-03T13:43:59.065Z,22.87
2023-05-03T13:45:02.458Z,22.68
2023-05-03T13:46:05.562Z,22.53
2023-05-03T13:47:08.482Z,22.33
2023-05-03T13:48:18.532Z,22.14
2023-05-03T13:49:22.437Z,21.90
2023-05-03T13:50:25.567Z,21.71
2023-05-03T13:51:28.678Z,21.51
2023-05-03T13:52:31.485Z,21.29
2023-05-03T13:53:34.363Z,21.09
2023-05-03T13:54:37.369Z,21.00
2023-05-03T13:55:40.319Z,20.94
2023-05-03T13:56:43.539Z,20.84
2023-05-03T13:57:46.408Z,20.76
2023-05-03T13:58:49.457Z,20.67
2023-05-03T13:59:52.386Z,20.59
2023-05-03T14:00:55.259Z,20.39
2023-05-03T14:01:59.359Z,20.22
2023-05-03T14:03:02.579Z,20.01
2023-05-03T14:04:05.886Z,19.79
2023-05-03T14:05:10.836Z,19.65
2023-05-03T14:06:13.685Z,19.52
2023-05-03T14:07:16.532Z,19.40